Time;durP1;ratioP1;P1;durP2;ratioP2;P2;SDS_P1;SDS_P2;PMS_P1;PMS_P2;Temp;Humidity;BMP_temperature;BMP_pressure;BME280_temperature;BME280_humidity;BME280_pressure;Samples;Min_cycle;Max_cycle;Signal;HPM_P1;HPM_P2
2023/08/28 00:02:19;;;;;;;5.47;2.93;;;;;;;15.45;100.00;101096.41;5225671;28;20141;-69
2023/08/28 00:04:50;;;;;;;4.73;3.00;;;;;;;15.32;100.00;101077.19;5232057;28;20170;-70
2023/08/28 00:07:21;;;;;;;5.80;3.30;;;;;;;15.13;100.00;101081.25;5226891;28;20030;-69
2023/08/28 00:09:53;;;;;;;4.50;3.17;;;;;;;14.89;100.00;101076.84;5230981;28;20045;-69
2023/08/28 00:12:24;;;;;;;6.87;3.13;;;;;;;14.93;100.00;101075.66;5233838;28;20025;-70
2023/08/28 00:14:56;;;;;;;7.03;3.07;;;;;;;14.97;100.00;101089.47;5233960;28;20020;-70
2023/08/28 00:17:27;;;;;;;6.27;3.10;;;;;;;14.86;100.00;101084.97;5216267;28;20040;-70
2023/08/28 00:19:58;;;;;;;4.90;3.10;;;;;;;15.17;100.00;101079.22;5234544;28;20628;-70
2023/08/28 00:22:30;;;;;;;5.47;3.13;;;;;;;14.90;100.00;101069.78;5216095;28;20051;-69
2023/08/28 00:25:03;;;;;;;5.33;2.97;;;;;;;14.87;100.00;101071.69;5234182;28;20033;-71
2023/08/28 00:27:35;;;;;;;3.73;3.03;;;;;;;15.05;100.00;101062.50;5233267;28;20017;-69
2023/08/28 00:30:07;;;;;;;8.67;2.90;;;;;;;14.80;100.00;101065.13;5212436;28;20026;-70
2023/08/28 00:32:39;;;;;;;3.33;2.87;;;;;;;14.68;100.00;101066.91;5209827;28;20416;-69
2023/08/28 00:35:10;;;;;;;5.40;2.90;;;;;;;14.73;100.00;101071.84;5225320;28;20024;-69
2023/08/28 00:37:41;;;;;;;4.97;3.10;;;;;;;14.69;100.00;101063.31;5213368;28;20025;-70
2023/08/28 00:40:13;;;;;;;4.47;3.40;;;;;;;14.58;100.00;101060.63;5233553;28;20455;-70
2023/08/28 00:42:45;;;;;;;4.27;3.17;;;;;;;14.64;100.00;101053.09;5215445;28;20029;-69
2023/08/28 00:45:16;;;;;;;8.07;3.57;;;;;;;14.58;100.00;101047.44;5233496;28;20048;-70
2023/08/28 00:47:48;;;;;;;9.37;4.07;;;;;;;14.48;100.00;101060.47;5233506;28;20022;-70
2023/08/28 00:50:19;;;;;;;5.00;3.40;;;;;;;14.62;100.00;101048.91;5233468;28;20029;-72
2023/08/28 00:52:51;;;;;;;4.27;3.57;;;;;;;14.62;100.00;101067.34;5215345;28;20558;-72
2023/08/28 00:55:23;;;;;;;5.60;3.23;;;;;;;14.50;100.00;101059.38;5216000;28;20053;-72
2023/08/28 00:57:54;;;;;;;6.63;3.37;;;;;;;14.69;100.00;101060.69;5213580;28;20041;-70
2023/08/28 01:00:26;;;;;;;5.30;3.30;;;;;;;14.47;100.00;101058.78;5233595;28;20396;-69
2023/08/28 01:02:57;;;;;;;5.63;3.90;;;;;;;14.45;100.00;101068.59;5274998;22;20052;-72
2023/08/28 01:05:54;;;;;;;6.33;3.37;;;;;;;14.61;100.00;101049.84;5260100;28;20118;-72
2023/08/28 01:09:06;;;;;;;4.93;3.50;;;;;;;14.61;100.00;101060.38;5233715;28;20025;-72
2023/08/28 01:12:12;;;;;;;6.23;3.40;;;;;;;14.52;100.00;101062.75;5234117;28;20402;-72
2023/08/28 01:15:10;;;;;;;5.63;4.00;;;;;;;14.51;100.00;101066.34;5252978;28;20029;-72
2023/08/28 01:17:43;;;;;;;5.20;3.80;;;;;;;14.38;100.00;101073.47;5229815;28;20056;-69
2023/08/28 01:20:15;;;;;;;6.47;3.80;;;;;;;14.44;100.00;101070.38;5218447;28;20657;-69
2023/08/28 01:23:17;;;;;;;9.13;3.97;;;;;;;14.44;100.00;101065.13;5233327;28;20021;-70
2023/08/28 01:25:48;;;;;;;7.40;3.90;;;;;;;14.23;100.00;101054.34;5230858;28;20045;-69
2023/08/28 01:28:25;;;;;;;6.00;4.30;;;;;;;14.19;100.00;101053.72;5267907;28;20029;-70
2023/08/28 01:30:56;;;;;;;6.37;4.20;;;;;;;14.30;100.00;101057.38;5253682;28;20036;-69
2023/08/28 01:33:27;;;;;;;8.77;4.40;;;;;;;14.07;100.00;101052.81;5253993;28;20029;-70
2023/08/28 01:36:13;;;;;;;6.47;3.67;;;;;;;14.32;100.00;101050.19;5212447;28;20052;-69
2023/08/28 01:39:10;;;;;;;7.90;4.03;;;;;;;14.57;100.00;101048.41;5254406;28;20036;-69
2023/08/28 01:41:42;;;;;;;6.50;4.07;;;;;;;14.32;100.00;101047.56;5218568;28;20039;-70
2023/08/28 01:44:16;;;;;;;8.10;4.60;;;;;;;14.44;100.00;101038.78;5248716;28;20078;-69
2023/08/28 01:46:48;;;;;;;6.38;4.60;;;;;;;14.09;100.00;101047.44;5237018;28;20025;-69
2023/08/28 01:49:19;;;;;;;8.27;4.33;;;;;;;14.05;100.00;101032.81;5231856;28;20074;-69
2023/08/28 01:51:51;;;;;;;8.17;4.07;;;;;;;14.17;100.00;101031.09;5265153;28;20059;-69
2023/08/28 01:54:23;;;;;;;6.47;4.23;;;;;;;14.04;100.00;101034.59;5233984;28;20079;-70
2023/08/28 01:56:55;;;;;;;7.43;4.13;;;;;;;13.98;100.00;101043.78;5252550;28;20021;-69
2023/08/28 01:59:26;;;;;;;5.57;4.00;;;;;;;14.07;100.00;101044.09;5233740;28;20021;-70
2023/08/28 02:01:57;;;;;;;5.97;4.50;;;;;;;13.98;100.00;101037.69;5251114;28;20060;-69
2023/08/28 02:04:29;;;;;;;5.83;4.30;;;;;;;14.17;100.00;101031.09;5248195;28;20192;-70
2023/08/28 02:07:00;;;;;;;6.60;4.80;;;;;;;14.08;100.00;101027.31;5253051;28;20033;-71
2023/08/28 02:09:32;;;;;;;6.43;4.57;;;;;;;14.03;100.00;101015.31;5252871;28;20037;-69
2023/08/28 02:12:05;;;;;;;6.23;4.33;;;;;;;13.96;100.00;101018.50;5252134;28;20033;-69
2023/08/28 02:14:36;;;;;;;6.33;4.93;;;;;;;13.96;100.00;101021.16;5253883;28;20029;-69
2023/08/28 02:17:07;;;;;;;5.40;4.60;;;;;;;14.15;100.00;101013.59;5219447;28;20025;-70
2023/08/28 02:19:39;;;;;;;6.00;4.47;;;;;;;13.97;100.00;101012.28;5238853;28;20061;-70
2023/08/28 02:22:10;;;;;;;7.07;5.13;;;;;;;14.02;100.00;101016.28;5257841;28;20559;-69
2023/08/28 02:24:41;;;;;;;6.10;4.30;;;;;;;13.97;100.00;101014.91;5256428;28;20032;-70
2023/08/28 02:27:13;;;;;;;7.00;4.67;;;;;;;14.13;100.00;101025.19;5256606;28;20032;-69
2023/08/28 02:29:44;;;;;;;18.23;5.30;;;;;;;14.11;100.00;101027.09;5257577;28;20021;-70
2023/08/28 02:32:15;;;;;;;7.53;5.37;;;;;;;13.89;100.00;101028.66;5255905;28;20041;-70
2023/08/28 02:34:47;;;;;;;6.33;4.67;;;;;;;13.97;100.00;101031.56;5247595;28;20061;-69
2023/08/28 02:37:18;;;;;;;7.30;5.00;;;;;;;13.87;100.00;101036.66;5256693;28;20096;-69
2023/08/28 02:39:49;;;;;;;7.03;5.37;;;;;;;13.70;100.00;101016.78;5251456;28;20033;-70
2023/08/28 02:42:21;;;;;;;9.30;5.30;;;;;;;13.65;100.00;101032.88;5237377;28;20112;-69
2023/08/28 02:44:52;;;;;;;5.77;5.13;;;;;;;13.74;100.00;101020.88;5257390;28;20084;-71
2023/08/28 02:47:24;;;;;;;6.37;5.50;;;;;;;13.65;100.00;101039.94;5257025;28;20096;-70
2023/08/28 02:49:55;;;;;;;7.43;5.27;;;;;;;13.59;100.00;101033.34;5257027;28;20040;-71
2023/08/28 02:52:26;;;;;;;9.30;5.63;;;;;;;13.77;100.00;101035.63;5254012;28;20028;-70
2023/08/28 02:54:58;;;;;;;8.13;4.83;;;;;;;13.61;100.00;101038.50;5247410;28;20112;-70
2023/08/28 02:57:29;;;;;;;10.07;5.53;;;;;;;13.57;100.00;101034.38;5253631;28;20032;-70
2023/08/28 03:00:00;;;;;;;8.20;5.27;;;;;;;13.71;100.00;101042.16;5251713;28;20035;-72
2023/08/28 03:02:32;;;;;;;7.53;5.87;;;;;;;13.78;100.00;101043.41;5253695;28;20037;-71
2023/08/28 03:05:03;;;;;;;7.53;5.47;;;;;;;13.62;100.00;101043.63;5256542;28;20080;-71
2023/08/28 03:07:34;;;;;;;9.23;5.53;;;;;;;13.61;100.00;101052.50;5238721;28;20064;-70
2023/08/28 03:10:07;;;;;;;7.97;5.50;;;;;;;13.52;100.00;101051.34;5248585;28;20041;-70
2023/08/28 03:12:39;;;;;;;9.50;5.83;;;;;;;13.48;100.00;101060.34;5254495;28;20537;-70
2023/08/28 03:15:11;;;;;;;11.40;6.37;;;;;;;13.76;100.00;101060.25;5254245;28;20079;-71
2023/08/28 03:17:42;;;;;;;7.60;5.50;;;;;;;13.61;100.00;101043.75;5251857;28;20021;-70
2023/08/28 03:20:13;;;;;;;13.70;5.50;;;;;;;13.61;100.00;101054.28;5263303;28;20537;-71
2023/08/28 03:22:45;;;;;;;6.73;5.20;;;;;;;13.43;100.00;101050.16;5255932;28;20376;-71
2023/08/28 03:25:16;;;;;;;7.57;5.67;;;;;;;13.60;100.00;101052.56;5237245;28;20068;-70
2023/08/28 03:27:47;;;;;;;9.07;6.00;;;;;;;13.60;100.00;101053.44;5234838;28;20488;-70
2023/08/28 03:30:19;;;;;;;11.87;5.90;;;;;;;13.57;100.00;101058.06;5237752;28;20033;-70
2023/08/28 03:32:50;;;;;;;7.33;5.33;;;;;;;13.76;100.00;101060.25;5255680;28;20083;-71
2023/08/28 03:35:21;;;;;;;7.67;5.90;;;;;;;13.51;100.00;101062.75;5254413;28;20039;-71
2023/08/28 03:37:53;;;;;;;7.80;6.37;;;;;;;13.59;100.00;101066.69;5242494;28;20084;-71
2023/08/28 03:40:24;;;;;;;9.10;6.00;;;;;;;13.68;100.00;101071.31;5237131;28;20063;-70
2023/08/28 03:42:55;;;;;;;7.83;6.50;;;;;;;13.57;100.00;101072.06;5253308;28;20136;-70
2023/08/28 03:45:27;;;;;;;11.40;6.60;;;;;;;13.59;100.00;101074.59;5237710;28;20029;-70
2023/08/28 03:47:58;;;;;;;9.03;6.37;;;;;;;13.83;100.00;101076.44;5234809;28;20078;-70
2023/08/28 03:50:30;;;;;;;10.73;6.80;;;;;;;13.69;100.00;101078.25;5269318;28;20025;-70
2023/08/28 03:53:01;;;;;;;9.50;6.27;;;;;;;13.69;100.00;101075.63;5255728;28;20055;-71
2023/08/28 03:55:33;;;;;;;8.00;6.93;;;;;;;13.73;100.00;101081.53;5254979;28;20025;-70
2023/08/28 03:58:04;;;;;;;13.67;6.40;;;;;;;13.73;100.00;101082.38;5253549;28;20082;-71
2023/08/28 04:00:35;;;;;;;8.93;6.47;;;;;;;13.73;100.00;101102.59;5250307;28;20081;-70
2023/08/28 04:03:07;;;;;;;8.27;6.47;;;;;;;13.81;100.00;101100.25;5255307;28;20075;-71
2023/08/28 04:05:38;;;;;;;10.43;8.20;;;;;;;13.91;100.00;101095.22;5254179;28;20083;-71
2023/08/28 04:08:10;;;;;;;12.77;7.53;;;;;;;13.83;100.00;101079.09;5237441;28;20020;-71
2023/08/28 04:10:42;;;;;;;12.70;8.30;;;;;;;14.02;100.00;101100.53;5254117;28;20507;-71
2023/08/28 04:13:13;;;;;;;13.73;9.97;;;;;;;14.03;100.00;101104.84;5255454;28;20063;-71
2023/08/28 04:15:44;;;;;;;15.87;10.77;;;;;;;13.95;100.00;101103.69;5255409;28;20494;-70
2023/08/28 04:18:16;;;;;;;20.77;11.50;;;;;;;13.96;100.00;101108.03;5255059;28;20029;-70
2023/08/28 04:20:47;;;;;;;20.73;13.50;;;;;;;14.03;100.00;101107.47;5248337;28;20364;-71
2023/08/28 04:23:18;;;;;;;25.80;14.93;;;;;;;13.92;100.00;101102.16;5236924;28;20074;-71
2023/08/28 04:25:50;;;;;;;18.37;12.77;;;;;;;13.99;100.00;101089.38;5235890;28;20037;-71
2023/08/28 04:28:21;;;;;;;20.57;12.73;;;;;;;14.17;100.00;101107.47;5247707;28;20476;-70
2023/08/28 04:30:53;;;;;;;20.53;12.43;;;;;;;14.20;100.00;101113.38;5248022;28;20036;-70
2023/08/28 04:33:24;;;;;;;21.60;13.03;;;;;;;14.20;100.00;101105.47;5254112;28;20071;-70
2023/08/28 04:35:55;;;;;;;19.97;11.50;;;;;;;14.12;100.00;101108.63;5254607;28;20071;-70
2023/08/28 04:38:27;;;;;;;16.83;10.43;;;;;;;14.09;100.00;101113.28;5248497;28;20044;-70
2023/08/28 04:40:58;;;;;;;13.83;9.90;;;;;;;14.13;100.00;101106.84;5253170;28;20025;-71
2023/08/28 04:43:29;;;;;;;16.40;9.50;;;;;;;14.19;100.00;101109.03;5253381;28;20081;-70
2023/08/28 04:46:01;;;;;;;11.63;7.33;;;;;;;14.27;100.00;101104.06;5253960;28;20036;-71
2023/08/28 04:48:32;;;;;;;10.93;8.63;;;;;;;14.08;100.00;101111.59;5254726;28;20033;-70
2023/08/28 04:51:04;;;;;;;11.20;8.40;;;;;;;14.23;100.00;101099.97;5254028;28;20390;-70
2023/08/28 04:53:36;;;;;;;9.43;7.63;;;;;;;14.25;100.00;101091.94;5254963;28;20025;-70
2023/08/28 04:56:07;;;;;;;7.73;6.80;;;;;;;14.31;100.00;101088.91;5252968;28;20032;-70
2023/08/28 04:58:38;;;;;;;9.50;7.23;;;;;;;14.32;100.00;101084.44;5254410;28;20110;-70
2023/08/28 05:01:10;;;;;;;9.97;6.87;;;;;;;14.29;100.00;101088.16;5259405;28;20685;-70
2023/08/28 05:03:41;;;;;;;8.50;7.43;;;;;;;14.20;100.00;101081.75;5262671;28;20510;-70
2023/08/28 05:06:12;;;;;;;9.90;7.30;;;;;;;14.19;100.00;101076.59;5250850;28;20028;-70
2023/08/28 05:08:44;;;;;;;9.50;6.47;;;;;;;14.40;100.00;101082.09;5252767;28;20060;-70
2023/08/28 05:11:15;;;;;;;8.67;6.70;;;;;;;14.35;100.00;101081.59;5252649;28;20056;-71
2023/08/28 05:13:46;;;;;;;9.10;6.47;;;;;;;14.37;100.00;101070.00;5254683;28;20037;-71
2023/08/28 05:16:18;;;;;;;8.57;6.70;;;;;;;14.45;100.00;101079.16;5253981;28;20120;-70
2023/08/28 05:18:49;;;;;;;8.40;6.97;;;;;;;14.41;100.00;101083.78;5254013;28;20032;-70
2023/08/28 05:21:20;;;;;;;10.67;6.70;;;;;;;14.54;100.00;101090.81;5253407;28;20060;-70
2023/08/28 05:23:52;;;;;;;10.27;6.93;;;;;;;14.54;100.00;101081.09;5254017;28;20106;-70
2023/08/28 05:26:23;;;;;;;14.27;7.40;;;;;;;14.55;100.00;101081.94;5252371;28;20107;-71
2023/08/28 05:28:54;;;;;;;7.77;6.33;;;;;;;14.55;100.00;101080.16;5236227;28;20025;-71
2023/08/28 05:31:25;;;;;;;8.20;6.77;;;;;;;14.56;100.00;101088.88;5252871;28;20495;-70
2023/08/28 05:33:57;;;;;;;11.10;7.33;;;;;;;14.60;100.00;101092.97;5235524;28;20098;-71
2023/08/28 05:36:28;;;;;;;10.53;6.30;;;;;;;14.62;100.00;101081.38;5229009;28;20024;-70
2023/08/28 05:38:59;;;;;;;8.13;7.33;;;;;;;14.60;100.00;101079.81;5250558;28;20155;-71
2023/08/28 05:41:31;;;;;;;8.13;6.27;;;;;;;14.61;100.00;101066.50;5246171;28;20032;-71
2023/08/28 05:44:02;;;;;;;11.37;7.77;;;;;;;14.57;100.00;101059.81;5253708;28;20025;-71
2023/08/28 05:46:33;;;;;;;14.83;8.00;;;;;;;14.63;100.00;101069.03;5253479;28;20084;-70
2023/08/28 05:49:05;;;;;;;9.37;7.33;;;;;;;14.61;100.00;101065.66;5248926;28;20107;-71
2023/08/28 05:51:37;;;;;;;9.97;8.17;;;;;;;14.54;100.00;101054.72;5245890;28;20037;-71
2023/08/28 05:54:09;;;;;;;9.97;7.73;;;;;;;14.64;100.00;101083.91;5247249;28;20036;-71
2023/08/28 05:56:40;;;;;;;12.57;7.13;;;;;;;14.67;100.00;101090.72;5239567;28;20032;-70
2023/08/28 05:59:11;;;;;;;9.20;7.20;;;;;;;14.67;100.00;101096.00;5253632;28;20032;-71
2023/08/28 06:01:43;;;;;;;14.03;8.70;;;;;;;14.72;100.00;101086.81;5238909;28;20643;-71
2023/08/28 06:04:14;;;;;;;9.53;7.90;;;;;;;14.69;100.00;101075.66;5232921;28;20502;-71
2023/08/28 06:06:45;;;;;;;8.63;7.53;;;;;;;14.76;100.00;101085.66;5248951;28;20076;-71
2023/08/28 06:09:17;;;;;;;8.50;7.57;;;;;;;14.75;100.00;101081.31;5248141;28;20399;-71
2023/08/28 06:11:48;;;;;;;9.03;8.13;;;;;;;14.80;100.00;101075.69;5255799;28;20524;-71
2023/08/28 06:14:20;;;;;;;9.07;7.93;;;;;;;14.74;100.00;101071.72;5257222;28;20032;-75
2023/08/28 06:16:51;;;;;;;10.87;8.83;;;;;;;14.81;100.00;101074.78;5252818;28;20039;-71
2023/08/28 06:19:22;;;;;;;12.63;8.70;;;;;;;14.76;100.00;101075.09;5256277;28;20090;-71
2023/08/28 06:21:53;;;;;;;13.37;8.03;;;;;;;14.80;100.00;101073.06;5254807;28;20056;-71
2023/08/28 06:24:25;;;;;;;10.93;8.20;;;;;;;14.82;100.00;101075.63;5256648;28;20512;-71
2023/08/28 06:26:56;;;;;;;10.13;8.93;;;;;;;14.81;100.00;101082.69;5250235;28;20029;-71
2023/08/28 06:29:27;;;;;;;9.33;8.07;;;;;;;14.85;100.00;101084.13;5238572;28;20033;-72
2023/08/28 06:31:58;;;;;;;10.40;8.80;;;;;;;14.85;100.00;101078.84;5256820;28;20482;-71
2023/08/28 06:34:30;;;;;;;10.23;8.87;;;;;;;14.86;100.00;101077.06;5256889;28;20057;-71
2023/08/28 06:37:01;;;;;;;11.53;9.67;;;;;;;14.92;100.00;101086.31;5256012;28;20098;-70
2023/08/28 06:39:32;;;;;;;10.37;8.93;;;;;;;14.98;100.00;101089.34;5256934;28;20032;-69
2023/08/28 06:42:04;;;;;;;10.97;9.53;;;;;;;15.02;100.00;101089.94;5232644;28;20025;-71
2023/08/28 06:44:35;;;;;;;12.17;9.40;;;;;;;15.05;100.00;101094.13;5246235;28;20083;-72
2023/08/28 06:47:06;;;;;;;10.50;9.23;;;;;;;15.14;100.00;101090.81;5221049;28;20040;-73
2023/08/28 06:49:38;;;;;;;10.80;9.77;;;;;;;15.21;100.00;101089.41;5245756;28;20030;-73
2023/08/28 06:52:09;;;;;;;11.90;9.13;;;;;;;15.37;100.00;101090.88;5242615;28;20450;-72
2023/08/28 06:54:40;;;;;;;13.23;9.67;;;;;;;15.54;100.00;101099.28;5248416;28;20037;-72
2023/08/28 06:57:12;;;;;;;11.20;9.50;;;;;;;15.76;100.00;101102.91;5251119;28;20051;-70
2023/08/28 06:59:43;;;;;;;11.77;8.50;;;;;;;15.86;100.00;101103.88;5253167;28;20440;-69
2023/08/28 07:02:14;;;;;;;11.60;8.80;;;;;;;15.97;100.00;101111.78;5233835;28;20060;-70
2023/08/28 07:04:46;;;;;;;9.53;8.53;;;;;;;15.97;100.00;101100.34;5254337;28;20125;-71
2023/08/28 07:07:18;;;;;;;9.20;8.30;;;;;;;16.17;100.00;101117.31;5253387;28;20153;-70
2023/08/28 07:09:49;;;;;;;9.30;8.27;;;;;;;16.31;100.00;101120.66;5225363;28;20029;-70
2023/08/28 07:12:20;;;;;;;9.37;8.27;;;;;;;16.36;100.00;101118.47;5256115;28;20025;-70
2023/08/28 07:15:10;;;;;;;9.03;7.70;;;;;;;16.65;100.00;101120.56;5255358;28;20378;-71
2023/08/28 07:17:41;;;;;;;9.97;7.40;;;;;;;16.51;100.00;101123.50;5248288;28;20037;-70
2023/08/28 07:20:13;;;;;;;11.93;7.13;;;;;;;16.57;100.00;101128.28;5253312;28;20036;-69
2023/08/28 07:22:44;;;;;;;8.33;7.00;;;;;;;16.62;100.00;101112.88;5251375;28;20068;-69
2023/08/28 07:25:16;;;;;;;11.03;7.10;;;;;;;16.71;100.00;101123.66;5244770;28;20107;-71
2023/08/28 07:27:49;;;;;;;7.87;7.07;;;;;;;16.74;100.00;101121.63;5251032;28;20103;-70
2023/08/28 07:30:20;;;;;;;10.60;7.23;;;;;;;16.86;100.00;101109.19;5232620;28;20035;-69
2023/08/28 07:32:52;;;;;;;12.53;7.70;;;;;;;17.02;100.00;101105.25;5232078;28;20034;-69
2023/08/28 07:35:23;;;;;;;7.97;6.73;;;;;;;17.20;100.00;101113.50;5228910;28;20075;-69
2023/08/28 07:37:55;;;;;;;8.37;6.93;;;;;;;17.48;100.00;101103.22;5253812;28;20094;-69
2023/08/28 07:40:26;;;;;;;9.40;7.17;;;;;;;17.87;100.00;101110.47;5252210;28;20029;-68
2023/08/28 07:42:59;;;;;;;8.33;6.40;;;;;;;18.29;100.00;101105.22;5254283;28;20103;-69
2023/08/28 07:45:30;;;;;;;7.00;5.83;;;;;;;18.89;100.00;101106.06;5253836;28;20487;-73
2023/08/28 07:48:02;;;;;;;7.20;5.73;;;;;;;19.36;100.00;101097.38;5254394;28;20021;-69
2023/08/28 07:50:34;;;;;;;6.70;5.53;;;;;;;19.75;100.00;101107.03;5237102;28;20660;-69
2023/08/28 07:53:05;;;;;;;6.40;4.60;;;;;;;19.92;100.00;101109.88;5252654;28;20028;-69
2023/08/28 07:55:37;;;;;;;7.37;4.63;;;;;;;20.07;100.00;101107.63;5252385;28;20090;-69
2023/08/28 07:58:09;;;;;;;4.97;4.30;;;;;;;20.00;100.00;101107.31;5253784;28;20479;-70
2023/08/28 08:00:42;;;;;;;7.97;4.97;;;;;;;19.90;100.00;101107.38;5253064;28;20036;-69
2023/08/28 08:03:13;;;;;;;9.80;5.47;;;;;;;19.97;100.00;101112.94;5235093;28;20052;-69
2023/08/28 08:05:45;;;;;;;6.93;5.03;;;;;;;19.91;100.00;101113.53;5235656;28;20025;-69
2023/08/28 08:08:16;;;;;;;6.53;5.00;;;;;;;20.15;100.00;101115.69;5235993;28;20048;-69
2023/08/28 08:10:47;;;;;;;8.23;4.63;;;;;;;20.31;100.00;101108.84;5253322;28;20036;-70
2023/08/28 08:13:19;;;;;;;6.88;4.55;;;;;;;20.44;100.00;101111.13;5253077;28;20194;-69
2023/08/28 08:15:50;;;;;;;7.18;4.63;;;;;;;20.46;100.00;101116.31;5253081;28;20115;-70
2023/08/28 08:18:22;;;;;;;5.60;4.88;;;;;;;20.42;100.00;101110.47;5242967;28;20028;-69
2023/08/28 08:20:53;;;;;;;5.78;4.60;;;;;;;20.58;100.00;101104.44;5253927;28;20025;-70
2023/08/28 08:23:26;;;;;;;8.32;5.72;;;;;;;20.67;100.00;101105.38;5247663;28;20021;-69
2023/08/28 08:25:58;;;;;;;8.87;5.30;;;;;;;20.67;100.00;101110.69;5247202;28;20039;-69
2023/08/28 08:28:30;;;;;;;6.05;5.40;;;;;;;20.53;100.00;101115.56;5241454;28;20429;-69
2023/08/28 08:31:01;;;;;;;7.75;4.97;;;;;;;20.40;100.00;101107.13;5253314;28;20554;-69
2023/08/28 08:33:33;;;;;;;6.03;5.38;;;;;;;20.07;100.00;101113.75;5249342;28;20137;-67
2023/08/28 08:36:05;;;;;;;6.15;4.15;;;;;;;20.07;100.00;101121.72;5253803;28;20360;-68
2023/08/28 08:38:36;;;;;;;4.18;3.00;;;;;;;19.89;100.00;101126.13;5251711;28;20083;-69
2023/08/28 08:41:08;;;;;;;6.93;4.23;;;;;;;19.70;100.00;101122.56;5251799;28;20605;-67
2023/08/28 08:43:40;;;;;;;5.87;4.90;;;;;;;19.63;100.00;101121.47;5252332;28;20025;-68
2023/08/28 08:46:11;;;;;;;4.70;4.30;;;;;;;19.55;100.00;101124.84;5252717;28;20113;-71
2023/08/28 08:48:44;;;;;;;7.80;5.20;;;;;;;19.45;100.00;101136.34;5253235;28;20027;-70
2023/08/28 08:51:20;;;;;;;6.23;5.07;;;;;;;19.54;100.00;101124.03;5252805;28;20033;-68
2023/08/28 08:54:04;;;;;;;7.23;4.40;;;;;;;19.51;100.00;101134.94;5230977;28;20030;-71
2023/08/28 08:56:37;;;;;;;;;;;;;;;20.14;100.00;101131.78;5229778;28;20698;-69
2023/08/28 08:59:09;;;;;;;6.30;4.63;;;;;;;19.59;100.00;101126.25;5250453;28;19921;-69
2023/08/28 09:01:41;;;;;;;5.10;3.83;;;;;;;19.65;100.00;101127.47;5225992;28;20025;-69
2023/08/28 09:04:13;;;;;;;7.07;4.17;;;;;;;19.74;100.00;101125.78;5252887;28;20025;-68
2023/08/28 09:06:47;;;;;;;4.03;3.43;;;;;;;19.81;100.00;101118.91;5253015;28;20639;-68
2023/08/28 09:09:18;;;;;;;5.23;3.20;;;;;;;20.16;100.00;101127.16;5234972;28;20040;-69
2023/08/28 09:11:49;;;;;;;3.30;2.70;;;;;;;20.31;100.00;101124.81;5251569;28;20029;-69
2023/08/28 09:14:21;;;;;;;4.20;2.35;;;;;;;20.48;100.00;101115.19;5252340;28;20428;-69
2023/08/28 09:16:52;;;;;;;4.10;2.90;;;;;;;20.69;100.00;101111.38;5252115;28;20032;-68
2023/08/28 09:19:25;;;;;;;5.38;2.80;;;;;;;20.79;100.00;101111.28;5253113;28;20082;-69
2023/08/28 09:21:57;;;;;;;4.75;3.28;;;;;;;21.07;100.00;101113.06;5252944;28;20056;-70
2023/08/28 09:24:29;;;;;;;4.63;2.25;;;;;;;21.32;100.00;101111.38;5233392;28;20514;-72
2023/08/28 09:27:01;;;;;;;4.82;2.35;;;;;;;21.42;100.00;101108.59;5251773;28;20060;-71
2023/08/28 09:29:38;;;;;;;4.45;2.03;;;;;;;21.85;100.00;101110.53;5251418;28;20541;-72
2023/08/28 09:32:09;;;;;;;3.97;2.10;;;;;;;21.68;100.00;101110.41;5248105;28;20056;-69
2023/08/28 09:34:41;;;;;;;3.95;2.40;;;;;;;21.97;100.00;101119.91;5251930;28;20098;-72
2023/08/28 09:37:12;;;;;;;3.72;1.70;;;;;;;22.66;100.00;101112.72;5252052;28;20060;-68
2023/08/28 09:39:55;;;;;;;3.47;2.03;;;;;;;23.16;100.00;101128.72;5251316;28;20037;-68
2023/08/28 09:42:26;;;;;;;3.47;2.67;;;;;;;23.60;100.00;101120.50;5239785;28;20090;-71
2023/08/28 09:44:58;;;;;;;3.53;2.28;;;;;;;23.69;100.00;101116.75;5252318;28;20033;-71
2023/08/28 09:47:29;;;;;;;3.67;1.92;;;;;;;23.54;100.00;101114.81;5251788;28;20044;-71
2023/08/28 09:50:03;;;;;;;3.10;1.83;;;;;;;23.79;100.00;101121.94;5252119;28;20029;-73
2023/08/28 09:52:34;;;;;;;3.00;1.80;;;;;;;23.48;100.00;101128.88;5252570;28;20025;-70
2023/08/28 09:55:07;;;;;;;5.20;2.45;;;;;;;23.01;100.00;101130.41;5250924;28;20387;-70
2023/08/28 09:57:42;;;;;;;2.45;1.85;;;;;;;23.26;100.00;101133.06;5246984;28;20428;-70
2023/08/28 10:00:14;;;;;;;3.50;2.20;;;;;;;23.37;100.00;101130.00;5247390;28;20040;-70
2023/08/28 10:02:45;;;;;;;2.60;1.40;;;;;;;23.99;100.00;101124.16;5249391;28;20772;-71
2023/08/28 10:05:19;;;;;;;2.40;1.40;;;;;;;24.45;100.00;101119.91;5250389;28;20195;-70
2023/08/28 10:07:52;;;;;;;5.97;1.90;;;;;;;24.18;100.00;101106.88;5251451;28;20033;-69
2023/08/28 10:10:25;;;;;;;3.33;1.53;;;;;;;24.61;100.00;101127.00;5250818;28;20071;-70
2023/08/28 10:12:58;;;;;;;2.40;1.58;;;;;;;24.67;100.00;101133.47;5232688;28;20394;-71
2023/08/28 10:15:31;;;;;;;3.13;1.50;;;;;;;24.63;100.00;101122.28;5248748;28;20033;-70
2023/08/28 10:18:15;;;;;;;3.75;2.25;;;;;;;25.04;100.00;101113.13;5251298;28;20032;-71
2023/08/28 10:20:46;;;;;;;5.70;1.80;;;;;;;25.53;100.00;101116.28;5250840;28;20036;-70
2023/08/28 10:23:20;;;;;;;3.38;1.02;;;;;;;25.70;100.00;101111.59;5251572;28;20696;-69
2023/08/28 10:25:53;;;;;;;2.42;1.00;;;;;;;26.06;98.77;101114.50;5232889;28;20028;-68
2023/08/28 10:28:25;;;;;;;4.43;2.20;;;;;;;25.67;99.16;101117.34;5252452;28;20019;-69
2023/08/28 10:30:57;;;;;;;5.35;1.40;;;;;;;25.07;100.00;101122.63;5252438;28;20047;-69
2023/08/28 10:33:30;;;;;;;2.05;1.08;;;;;;;25.44;100.00;101128.94;5249581;28;20024;-69
2023/08/28 10:36:02;;;;;;;4.70;1.52;;;;;;;25.37;100.00;101119.97;5252059;28;20025;-70
2023/08/28 10:38:34;;;;;;;2.35;1.38;;;;;;;24.72;100.00;101125.72;5229674;28;20029;-70
2023/08/28 10:41:06;;;;;;;1.83;1.00;;;;;;;24.84;100.00;101118.94;5253137;28;20391;-72
2023/08/28 10:43:38;;;;;;;2.50;0.80;;;;;;;24.55;100.00;101128.53;5255754;28;20013;-70
2023/08/28 10:46:09;;;;;;;2.03;1.10;;;;;;;24.48;100.00;101124.91;5255966;28;20102;-68
2023/08/28 10:48:41;;;;;;;1.65;0.85;;;;;;;24.32;100.00;101126.69;5255126;28;20108;-70
2023/08/28 10:51:13;;;;;;;2.40;1.27;;;;;;;24.06;100.00;101127.81;5254925;28;20040;-71
2023/08/28 10:53:44;;;;;;;2.78;0.80;;;;;;;24.23;100.00;101123.22;5254560;28;20025;-70
2023/08/28 10:56:15;;;;;;;3.83;1.15;;;;;;;23.55;100.00;101121.84;5254532;28;20068;-68
2023/08/28 10:58:47;;;;;;;3.33;1.30;;;;;;;23.91;100.00;101115.16;5255076;28;20040;-72
2023/08/28 11:01:18;;;;;;;2.65;1.65;;;;;;;23.77;100.00;101115.91;5253200;28;20418;-70
2023/08/28 11:03:57;;;;;;;1.80;1.50;;;;;;;23.52;100.00;101113.31;5254920;28;20527;-71
2023/08/28 11:06:34;;;;;;;4.50;1.80;;;;;;;23.65;100.00;101121.63;5251931;28;20048;-70
2023/08/28 11:09:30;;;;;;;2.63;1.80;;;;;;;23.49;100.00;101105.66;5254994;28;20025;-70
2023/08/28 11:12:01;;;;;;;3.17;1.48;;;;;;;23.29;100.00;101116.69;5227985;28;20037;-68
2023/08/28 11:14:41;;;;;;;4.13;2.00;;;;;;;23.02;100.00;101116.88;5254831;28;20375;-70
2023/08/28 11:17:18;;;;;;;3.15;1.50;;;;;;;22.93;100.00;101109.91;5255487;28;20079;-70
2023/08/28 11:19:55;;;;;;;4.10;1.77;;;;;;;23.02;100.00;101100.03;5252697;28;20531;-69
2023/08/28 11:22:40;;;;;;;3.90;1.45;;;;;;;23.25;100.00;101105.50;5236865;28;20035;-70
2023/08/28 11:25:13;;;;;;;3.33;2.00;;;;;;;23.37;100.00;101097.94;5233337;28;20053;-72
2023/08/28 11:27:48;;;;;;;1.10;0.80;;;;;;;23.29;100.00;101100.66;5255213;28;20028;-67
2023/08/28 11:30:21;;;;;;;4.60;1.33;;;;;;;23.41;100.00;101093.97;5236679;28;20025;-69
2023/08/28 11:32:55;;;;;;;3.30;1.67;;;;;;;23.69;100.00;101106.06;5254922;28;20546;-69
2023/08/28 11:35:27;;;;;;;2.22;1.73;;;;;;;23.27;100.00;101094.63;5254386;28;20049;-68
2023/08/28 11:37:58;;;;;;;6.43;1.60;;;;;;;23.62;100.00;101100.59;5253487;28;20033;-68
2023/08/28 11:40:29;;;;;;;3.58;1.90;;;;;;;23.47;100.00;101096.97;5248196;28;20025;-69